Kaiyohmaru — JJ3357 — position and weather

sailwx.info

Track history (hours):
 
Tides and Currents Weather Stations Pressure Air Temp Water Temp Dewpoint Dewpoint Depression Visibility Wind Speed Wind Dir Waves Ship Positions

Kaiyohmaru

Last reported at 2018-Apr-12 22:31 UTC. Time now 2018-May-20 17:35 UTC.
Position N 35°02' E 139°44'.
Warning: this ship's position is 37 days out of date.

Length 28 m.

Type: Tug. MMSI: 431501708.

Date/timePositionNaut miles runAvg speedWind from/ knotsBaromVisibWave heightAir tempDewpointWater temp
2018-Apr-12 22:31N 35°02' E 139°44'011.4
2018-Apr-12 22:30N 35°03' E 139°44'511.0
2018-Apr-12 22:00N 35°08' E 139°45'611.4
2018-Apr-12 21:29N 35°14' E 139°46'611.2
2018-Apr-12 20:58N 35°19' E 139°43'4 9.6
2018-Apr-12 20:30N 35°23' E 139°44'5 9.5
2018-Apr-12 19:59N 35°21' E 139°49'  
2018-Apr-10 04:52N 35°21' E 139°49'3 9.0
2018-Apr-10 04:30N 35°22' E 139°45'5 9.0
2018-Apr-10 03:58N 35°17' E 139°46'4 9.4
2018-Apr-10 03:30N 35°12' E 139°47'910.0
2018-Apr-10 02:35N 35°06' E 139°39'51 8.6
2018-Apr-09 20:38N 34°45' E 138°41'210.9
2018-Apr-09 20:25N 34°48' E 138°43'  
2018-Apr-04 23:12N 34°49' E 138°46'0 0.2
2018-Apr-04 22:17N 34°50' E 138°46'0 0.0
2018-Apr-04 20:39N 34°50' E 138°46'42 5.1
2018-Apr-04 12:28N 35°03' E 139°34'4 8.5
2018-Apr-04 12:00N 35°05' E 139°38'4 8.8
2018-Apr-04 11:30N 35°08' E 139°43'4 8.3
2018-Apr-04 11:00N 35°11' E 139°45'5 8.3
2018-Apr-04 10:27N 35°16' E 139°46'4 9.1
2018-Apr-04 09:59N 35°19' E 139°43'4 8.7
2018-Apr-04 09:30N 35°24' E 139°42'4 8.0
2018-Apr-04 09:00N 35°27' E 139°46'5 8.3
2018-Apr-04 08:27N 35°29' E 139°50'2 0.1
2018-Apr-03 02:06N 35°29' E 139°48'1 9.3
2018-Apr-03 02:00N 35°28' E 139°48'5 9.7
2018-Apr-03 01:30N 35°25' E 139°43'4 8.5
2018-Apr-03 01:00N 35°23' E 139°38'0 0.3
2018-Apr-03 00:29N 35°23' E 139°39'3 5.3
2018-Apr-03 00:00N 35°24' E 139°42'3 5.8
2018-Apr-02 23:31N 35°26' E 139°44'3 5.7
2018-Apr-02 23:01N 35°28' E 139°46'  
Track history (hours):
 
Tides and Currents Weather Stations Pressure Air Temp Water Temp Dewpoint Dewpoint Depression Visibility Wind Speed Wind Dir Waves Ship Positions

Kaiyohmaru

Last reported at 2018-Apr-12 22:31 UTC. Time now 2018-May-20 17:35 UTC.
Position N 35°02' E 139°44'.
Warning: this ship's position is 37 days out of date.

Length 28 m.

Type: Tug. MMSI: 431501708.

Date/timePositionNaut miles runAvg speedWind from/ knotsBaromVisibWave heightAir tempDewpointWater temp
2018-Apr-12 22:31N 35°02' E 139°44'011.4
2018-Apr-12 22:30N 35°03' E 139°44'511.0
2018-Apr-12 22:00N 35°08' E 139°45'611.4
2018-Apr-12 21:29N 35°14' E 139°46'611.2
2018-Apr-12 20:58N 35°19' E 139°43'4 9.6
2018-Apr-12 20:30N 35°23' E 139°44'5 9.5
2018-Apr-12 19:59N 35°21' E 139°49'  
2018-Apr-10 04:52N 35°21' E 139°49'3 9.0
2018-Apr-10 04:30N 35°22' E 139°45'5 9.0
2018-Apr-10 03:58N 35°17' E 139°46'4 9.4
2018-Apr-10 03:30N 35°12' E 139°47'910.0
2018-Apr-10 02:35N 35°06' E 139°39'51 8.6
2018-Apr-09 20:38N 34°45' E 138°41'210.9
2018-Apr-09 20:25N 34°48' E 138°43'  
2018-Apr-04 23:12N 34°49' E 138°46'0 0.2
2018-Apr-04 22:17N 34°50' E 138°46'0 0.0
2018-Apr-04 20:39N 34°50' E 138°46'42 5.1
2018-Apr-04 12:28N 35°03' E 139°34'4 8.5
2018-Apr-04 12:00N 35°05' E 139°38'4 8.8
2018-Apr-04 11:30N 35°08' E 139°43'4 8.3
2018-Apr-04 11:00N 35°11' E 139°45'5 8.3
2018-Apr-04 10:27N 35°16' E 139°46'4 9.1
2018-Apr-04 09:59N 35°19' E 139°43'4 8.7
2018-Apr-04 09:30N 35°24' E 139°42'4 8.0
2018-Apr-04 09:00N 35°27' E 139°46'5 8.3
2018-Apr-04 08:27N 35°29' E 139°50'2 0.1
2018-Apr-03 02:06N 35°29' E 139°48'1 9.3
2018-Apr-03 02:00N 35°28' E 139°48'5 9.7
2018-Apr-03 01:30N 35°25' E 139°43'4 8.5
2018-Apr-03 01:00N 35°23' E 139°38'0 0.3
2018-Apr-03 00:29N 35°23' E 139°39'3 5.3
2018-Apr-03 00:00N 35°24' E 139°42'3 5.8
2018-Apr-02 23:31N 35°26' E 139°44'3 5.7
2018-Apr-02 23:01N 35°28' E 139°46'  

Dump ship's entire track history